Aérodrome :
LOGIN :

S'inscrire | Disclaimer

   EN    FR    IT 

 










Légende :    VFR   VFR Marginal   IFR   IFR Intensif   IFR Très Intensif
Visi : 
Plafond : 
>= 8 km
>= 3000ft
5 à 8 km
1000 à 3000 ft
1500m à 5 km
500 à 1000 ft
800 à 1500m
200 à 500 ft
< 800m
< 200 ft
Symboles :   Orages  Brouillard  Fortes neiges  Fortes précipitations  Vent > 20 kt
SIGMETs :   Divers  Orages  Givrage  Turbulence  Onde Orograph.  Cendres Volcan.







- Altitude de l'aérodrome : 622 ft
- Code IATA : BRS
- Voir les cartes d'approche


EGGD - Bristol Int.

DERNIER METAR :
  • 210050Z AUTO VRB01KT 9999 BKN038 OVC044 13/10 Q1019

METARs EXPIRÉS :
  • 210020Z AUTO 26002KT 9999 BKN039 13/10 Q1019
  • 202350Z AUTO 24004KT 9999 SCT042 13/11 Q1019
  • 202320Z AUTO 25004KT 9999 BKN044 12/11 Q1019
  • 202250Z AUTO 22003KT 9999 BKN049 13/10 Q1019
  • 202220Z AUTO 23005KT 9999 NCD 13/10 Q1019

TAF TAF EGGD
Valide du 21 à 00h jusqu'au 22 à 00h UTC


202256Z 2100/2124 17005KT 9999 FEW045
PROB30 2100/2108 7000
PROB40 2112/2117 03010KT
PROB40
TEMPO 2115/2120 4000 +SHRA TSGR
ATIS : +44 1275 473 666
Pas de NOTAMs connus pour ce terrain.



MET'MAP, la Météo Aéronautique d'un coup d'oeil ! - Copyright ORBIFLY Décembre 2007 - Disclaimer

ORBIFLY MET'MAP TEAM :

Programmation & Développement : Alexandra Zaïnal
Conception & Développement : Baudouin d'Aumeries
Co-Programmation & Développement : Marc-Olivier Méhu
Soutien technique & logistique : Manuel Goepfert

Contact : metmap@orbifly.com




SOURCES & CREDITS :

   NOAA